createdAt,value
2018-07-17T00:00:00.322Z,13.50
2018-07-17T00:01:00.564Z,12.40
2018-07-17T00:02:00.805Z,13.00
2018-07-17T00:03:01.049Z,13.60
2018-07-17T00:04:01.290Z,13.60
2018-07-17T00:05:01.531Z,13.40
2018-07-17T00:06:01.772Z,14.10
2018-07-17T00:07:02.014Z,14.70
2018-07-17T00:08:02.255Z,20.50
2018-07-17T00:09:02.500Z,16.90
2018-07-17T00:10:02.741Z,15.40
2018-07-17T00:11:02.981Z,16.10
2018-07-17T00:12:03.224Z,22.50
2018-07-17T00:13:03.463Z,18.80
2018-07-17T00:14:03.705Z,19.20
2018-07-17T00:15:03.948Z,22.80
2018-07-17T00:16:04.188Z,24.60
2018-07-17T00:17:04.430Z,22.40
2018-07-17T00:18:04.672Z,24.60
2018-07-17T00:19:04.914Z,24.80
2018-07-17T00:20:05.157Z,26.10
2018-07-17T00:21:05.397Z,26.10
2018-07-17T00:22:05.637Z,24.50
2018-07-17T00:23:05.879Z,26.60
2018-07-17T00:24:06.120Z,23.20
2018-07-17T00:25:06.362Z,24.30
2018-07-17T00:26:06.604Z,26.90
2018-07-17T00:27:06.847Z,26.10
2018-07-17T00:28:07.088Z,23.40
2018-07-17T00:29:07.329Z,20.20
2018-07-17T00:30:07.571Z,18.90
2018-07-17T00:31:07.813Z,18.00
2018-07-17T00:32:08.052Z,18.10
2018-07-17T00:33:08.294Z,17.60
2018-07-17T00:34:08.536Z,16.90
2018-07-17T00:35:08.783Z,17.30
2018-07-17T00:36:09.020Z,17.80
2018-07-17T00:37:09.260Z,18.60
2018-07-17T00:38:09.502Z,19.60
2018-07-17T00:39:09.744Z,19.60
2018-07-17T00:40:09.987Z,18.70
2018-07-17T00:41:10.228Z,19.60
2018-07-17T00:42:10.471Z,19.40
2018-07-17T00:43:10.713Z,17.60
2018-07-17T00:44:10.961Z,18.80
2018-07-17T00:45:11.196Z,19.30
2018-07-17T00:46:11.438Z,19.60
2018-07-17T00:47:11.680Z,18.00
2018-07-17T00:48:11.923Z,18.60
2018-07-17T00:49:12.163Z,17.80
2018-07-17T00:50:12.403Z,17.20
2018-07-17T00:51:12.644Z,17.10
2018-07-17T00:52:12.893Z,15.00
2018-07-17T00:53:13.127Z,15.30
2018-07-17T00:54:13.369Z,15.40
2018-07-17T00:55:13.610Z,15.00
2018-07-17T00:56:13.852Z,14.80
2018-07-17T00:57:14.093Z,15.10
2018-07-17T00:58:14.336Z,15.80
2018-07-17T00:59:14.582Z,17.50
2018-07-17T01:00:14.820Z,15.10
2018-07-17T01:01:15.060Z,15.30
2018-07-17T01:02:15.299Z,14.70
2018-07-17T01:03:15.541Z,14.00
2018-07-17T01:04:15.782Z,14.50
2018-07-17T01:05:16.023Z,14.50
2018-07-17T01:06:16.268Z,15.00
2018-07-17T01:07:16.551Z,16.60
2018-07-17T01:08:16.747Z,15.00
2018-07-17T01:09:16.987Z,13.20
2018-07-17T01:10:17.227Z,14.10
2018-07-17T01:11:17.469Z,13.30
2018-07-17T01:12:17.708Z,14.60
2018-07-17T01:13:17.949Z,21.30
2018-07-17T01:14:18.191Z,19.90
2018-07-17T01:15:18.433Z,20.60
2018-07-17T01:16:18.673Z,19.50
2018-07-17T01:17:18.913Z,17.40
2018-07-17T01:18:19.154Z,17.80
2018-07-17T01:19:19.395Z,19.10
2018-07-17T01:20:19.635Z,19.60
2018-07-17T01:21:19.877Z,18.40
2018-07-17T01:22:20.116Z,18.00
2018-07-17T01:23:20.357Z,18.60
2018-07-17T01:24:20.606Z,18.50
2018-07-17T01:25:20.839Z,20.30
2018-07-17T01:26:21.081Z,20.60
2018-07-17T01:27:21.320Z,18.10
2018-07-17T01:28:21.561Z,18.10
2018-07-17T01:29:21.802Z,18.50
2018-07-17T01:30:22.045Z,17.30
2018-07-17T01:31:22.283Z,18.20
2018-07-17T01:32:22.529Z,17.90
2018-07-17T01:33:22.766Z,16.70
2018-07-17T01:34:23.004Z,17.60
2018-07-17T01:35:23.247Z,21.00
2018-07-17T01:36:23.488Z,23.40
2018-07-17T01:37:23.730Z,22.20
2018-07-17T01:38:24.021Z,21.90
2018-07-17T01:39:24.212Z,19.70
2018-07-17T01:40:24.455Z,20.20
2018-07-17T01:41:24.693Z,18.90
2018-07-17T01:42:24.933Z,19.10
2018-07-17T01:43:25.174Z,18.20
2018-07-17T01:44:25.415Z,19.70
2018-07-17T01:45:25.713Z,19.80
2018-07-17T01:46:25.896Z,21.30
2018-07-17T01:47:26.138Z,22.30
2018-07-17T01:48:26.377Z,22.10
2018-07-17T01:49:26.621Z,22.70
2018-07-17T01:50:26.859Z,21.70
2018-07-17T01:51:27.098Z,20.60
2018-07-17T01:52:27.341Z,21.20
2018-07-17T01:53:27.580Z,22.30
2018-07-17T01:54:27.824Z,21.60
2018-07-17T01:55:28.066Z,21.50
2018-07-17T01:56:28.305Z,20.70
2018-07-17T01:57:28.545Z,23.10
2018-07-17T01:58:28.785Z,21.90
2018-07-17T01:59:29.025Z,21.50
2018-07-17T02:00:29.266Z,23.10
2018-07-17T02:01:29.507Z,22.50
2018-07-17T02:02:29.749Z,23.70
2018-07-17T02:03:29.989Z,22.20
2018-07-17T02:04:30.230Z,21.90
2018-07-17T02:05:30.469Z,21.30
2018-07-17T02:06:30.713Z,21.00
2018-07-17T02:07:30.952Z,19.80
2018-07-17T02:08:31.195Z,20.10
2018-07-17T02:09:31.434Z,19.10
2018-07-17T02:10:31.676Z,19.50
2018-07-17T02:11:31.918Z,19.20
2018-07-17T02:12:32.157Z,19.80
2018-07-17T02:13:32.399Z,20.80
2018-07-17T02:14:32.639Z,20.30
2018-07-17T02:15:32.880Z,20.70
2018-07-17T02:16:33.120Z,19.90
2018-07-17T02:17:33.362Z,19.80
2018-07-17T02:18:33.601Z,19.80
2018-07-17T02:19:33.843Z,21.00
2018-07-17T02:20:34.085Z,19.10
2018-07-17T02:21:34.333Z,17.30
2018-07-17T02:22:34.568Z,17.40
2018-07-17T02:23:34.810Z,17.70
2018-07-17T02:24:35.052Z,17.50
2018-07-17T02:25:35.292Z,21.70
2018-07-17T02:26:35.533Z,17.30
2018-07-17T02:27:35.776Z,17.50
2018-07-17T02:28:36.017Z,15.70
2018-07-17T02:29:36.257Z,19.30
2018-07-17T02:30:36.501Z,18.60
2018-07-17T02:31:36.740Z,17.50
2018-07-17T02:32:36.984Z,18.40
2018-07-17T02:33:37.221Z,17.90
2018-07-17T02:34:37.462Z,16.10
2018-07-17T02:35:37.703Z,20.10
2018-07-17T02:36:37.944Z,19.20
2018-07-17T02:37:38.186Z,18.00
2018-07-17T02:38:38.426Z,17.90
2018-07-17T02:39:38.665Z,18.70
2018-07-17T02:40:38.905Z,18.20
2018-07-17T02:41:39.146Z,18.50
2018-07-17T02:42:39.389Z,18.70
2018-07-17T02:43:39.628Z,21.90
2018-07-17T02:44:39.868Z,21.60
2018-07-17T02:45:40.114Z,22.30
2018-07-17T02:46:40.348Z,22.80
2018-07-17T02:47:40.588Z,20.80
2018-07-17T02:48:40.827Z,20.60
2018-07-17T02:49:41.068Z,21.80
2018-07-17T02:50:41.308Z,20.10
2018-07-17T02:51:41.550Z,24.10
2018-07-17T02:52:41.790Z,23.50
2018-07-17T02:53:42.031Z,20.90
2018-07-17T02:54:42.273Z,19.90
2018-07-17T02:55:42.512Z,18.70
2018-07-17T02:56:42.752Z,19.80
2018-07-17T02:57:42.991Z,20.60
2018-07-17T02:58:43.232Z,20.00
2018-07-17T02:59:43.478Z,20.30
2018-07-17T03:00:43.718Z,21.30
2018-07-17T03:01:43.958Z,20.90
2018-07-17T03:02:44.199Z,20.70
2018-07-17T03:03:44.496Z,21.80
2018-07-17T03:04:44.684Z,20.50
2018-07-17T03:05:44.920Z,20.30
2018-07-17T03:06:45.162Z,20.80
2018-07-17T03:07:45.403Z,21.00
2018-07-17T03:08:45.645Z,21.60
2018-07-17T03:09:45.884Z,24.10
2018-07-17T03:10:46.125Z,18.70
2018-07-17T03:11:46.366Z,20.20
2018-07-17T03:12:46.610Z,20.90
2018-07-17T03:13:46.851Z,22.60
2018-07-17T03:14:47.094Z,23.50
2018-07-17T03:15:47.333Z,26.50
2018-07-17T03:16:47.575Z,25.90
2018-07-17T03:17:47.816Z,24.40
2018-07-17T03:18:48.057Z,23.30
2018-07-17T03:19:48.298Z,21.80
2018-07-17T03:20:48.541Z,20.80
2018-07-17T03:21:48.781Z,20.20
2018-07-17T03:22:49.023Z,19.10
2018-07-17T03:23:49.262Z,19.00
2018-07-17T03:24:49.503Z,17.90
2018-07-17T03:25:49.746Z,18.40
2018-07-17T03:26:49.987Z,18.70
2018-07-17T03:27:50.228Z,18.80
2018-07-17T03:28:50.467Z,20.20
2018-07-17T03:29:50.707Z,19.00
2018-07-17T03:30:50.950Z,19.90
2018-07-17T03:31:51.192Z,18.00
2018-07-17T03:32:51.431Z,19.10
2018-07-17T03:33:51.672Z,18.30
2018-07-17T03:34:51.915Z,18.70
2018-07-17T03:35:52.158Z,19.90
2018-07-17T03:36:52.394Z,19.20
2018-07-17T03:37:52.637Z,22.50
2018-07-17T03:38:52.878Z,22.20
2018-07-17T03:39:53.116Z,23.50
2018-07-17T03:40:53.356Z,24.30
2018-07-17T03:41:53.601Z,26.30
2018-07-17T03:42:53.839Z,28.40
2018-07-17T03:43:54.079Z,27.60
2018-07-17T03:44:54.320Z,28.90
2018-07-17T03:45:54.561Z,28.20
2018-07-17T03:46:54.802Z,29.30
2018-07-17T03:47:55.045Z,28.80
2018-07-17T03:48:55.285Z,28.90
2018-07-17T03:49:55.525Z,26.80
2018-07-17T03:50:55.767Z,23.00
2018-07-17T03:51:56.008Z,23.70
2018-07-17T03:52:56.249Z,24.40
2018-07-17T03:53:56.491Z,26.90
2018-07-17T03:54:56.733Z,25.30
2018-07-17T03:55:56.975Z,25.90
2018-07-17T03:56:57.217Z,25.00
2018-07-17T03:57:57.457Z,26.90
2018-07-17T03:58:57.698Z,28.30
2018-07-17T03:59:57.939Z,26.20
2018-07-17T04:00:58.181Z,27.30
2018-07-17T04:01:58.423Z,29.10
2018-07-17T04:02:58.725Z,26.60
2018-07-17T04:03:58.909Z,27.60
2018-07-17T04:04:59.143Z,29.80
2018-07-17T04:05:59.387Z,26.60
2018-07-17T04:06:59.625Z,27.30
2018-07-17T04:07:59.867Z,24.60
2018-07-17T04:09:00.114Z,24.10
2018-07-17T04:10:00.355Z,24.50
2018-07-17T04:11:00.595Z,23.50
2018-07-17T04:12:00.836Z,22.00
2018-07-17T04:13:01.078Z,22.20
2018-07-17T04:14:01.319Z,21.60
2018-07-17T04:15:01.563Z,22.80
2018-07-17T04:16:01.804Z,25.50
2018-07-17T04:17:02.045Z,23.70
2018-07-17T04:18:02.287Z,23.40
2018-07-17T04:19:02.528Z,22.20
2018-07-17T04:20:02.769Z,22.70
2018-07-17T04:21:03.011Z,21.90
2018-07-17T04:22:03.252Z,23.30
2018-07-17T04:23:03.495Z,23.30
2018-07-17T04:24:03.735Z,24.90
2018-07-17T04:25:03.979Z,21.40
2018-07-17T04:26:04.221Z,20.00
2018-07-17T04:27:04.462Z,19.20
2018-07-17T04:28:04.704Z,17.50
2018-07-17T04:29:04.947Z,15.50
2018-07-17T04:30:05.188Z,17.30
2018-07-17T04:31:05.430Z,19.20
2018-07-17T04:32:05.672Z,18.80
2018-07-17T04:33:05.913Z,20.80
2018-07-17T04:34:06.154Z,20.70
2018-07-17T04:35:06.398Z,19.80
2018-07-17T04:36:06.636Z,19.70
2018-07-17T04:37:06.876Z,21.70
2018-07-17T04:38:07.118Z,22.90
2018-07-17T04:39:07.357Z,18.10
2018-07-17T04:40:07.598Z,18.20
2018-07-17T04:41:07.838Z,20.30
2018-07-17T04:42:08.087Z,21.70
2018-07-17T04:43:08.322Z,21.20
2018-07-17T04:44:08.577Z,22.30
2018-07-17T04:45:08.803Z,23.80
2018-07-17T04:46:09.046Z,23.20
2018-07-17T04:47:09.290Z,24.90
2018-07-17T04:48:09.532Z,23.70
2018-07-17T04:49:09.778Z,21.80
2018-07-17T04:50:10.013Z,22.70
2018-07-17T04:51:10.261Z,23.40
2018-07-17T04:52:10.491Z,22.80
2018-07-17T04:53:10.732Z,22.50
2018-07-17T04:54:10.972Z,20.40
2018-07-17T04:55:11.214Z,19.80
2018-07-17T04:56:11.456Z,20.30
2018-07-17T04:57:11.698Z,21.10
2018-07-17T04:58:11.936Z,21.80
2018-07-17T04:59:12.175Z,21.70
2018-07-17T05:00:12.416Z,20.80
2018-07-17T05:01:12.656Z,21.20
2018-07-17T05:02:12.897Z,20.10
2018-07-17T05:03:13.139Z,19.30
2018-07-17T05:04:13.379Z,18.50
2018-07-17T05:05:13.621Z,17.70
2018-07-17T05:06:13.867Z,18.20
2018-07-17T05:07:14.103Z,18.80
2018-07-17T05:08:14.345Z,18.90
2018-07-17T05:09:14.585Z,19.10
2018-07-17T05:10:14.829Z,18.80
2018-07-17T05:11:15.068Z,18.10
2018-07-17T05:12:15.308Z,20.00
2018-07-17T05:13:15.552Z,22.90
2018-07-17T05:14:15.789Z,21.00
2018-07-17T05:15:16.037Z,17.90
2018-07-17T05:16:16.292Z,16.80
2018-07-17T05:17:16.519Z,21.70
2018-07-17T05:18:16.763Z,20.60
2018-07-17T05:19:17.002Z,17.70
2018-07-17T05:20:17.252Z,16.90
2018-07-17T05:21:17.488Z,17.40
2018-07-17T05:22:17.730Z,17.80
2018-07-17T05:23:17.974Z,18.00
2018-07-17T05:24:18.214Z,17.60
2018-07-17T05:25:18.456Z,16.20
2018-07-17T05:26:18.699Z,19.50
2018-07-17T05:27:18.942Z,17.00
2018-07-17T05:28:19.184Z,14.60
2018-07-17T05:29:19.428Z,17.70
2018-07-17T05:30:19.671Z,14.20
2018-07-17T05:31:19.913Z,14.70
2018-07-17T05:32:20.159Z,14.30
2018-07-17T05:33:20.398Z,14.30
2018-07-17T05:34:20.642Z,13.50
2018-07-17T05:35:20.937Z,12.80
2018-07-17T05:36:21.178Z,12.50
2018-07-17T05:37:21.372Z,13.00
2018-07-17T05:38:21.615Z,13.00
2018-07-17T05:39:21.878Z,12.70
2018-07-17T05:40:22.103Z,12.60
2018-07-17T05:41:22.346Z,12.30
2018-07-17T05:42:22.590Z,12.40
2018-07-17T05:43:22.833Z,13.30
2018-07-17T05:44:23.078Z,11.80
2018-07-17T05:45:23.321Z,11.50
2018-07-17T05:46:23.570Z,10.40
2018-07-17T05:47:23.809Z,10.10
2018-07-17T05:48:24.053Z,10.80
2018-07-17T05:49:24.296Z,9.40
2018-07-17T05:50:24.539Z,9.90
2018-07-17T05:51:24.782Z,9.30
2018-07-17T05:52:25.028Z,8.90
2018-07-17T05:53:25.272Z,9.20
2018-07-17T05:54:25.516Z,9.20
2018-07-17T05:55:25.760Z,9.90
2018-07-17T05:56:26.004Z,9.10
2018-07-17T05:57:26.248Z,9.90
2018-07-17T05:58:26.492Z,9.00
2018-07-17T05:59:26.738Z,9.50
2018-07-17T06:00:26.981Z,9.50
2018-07-17T06:01:27.225Z,8.50
2018-07-17T06:02:27.472Z,9.70
2018-07-17T06:03:27.813Z,9.30
2018-07-17T06:04:27.958Z,8.80
2018-07-17T06:05:28.202Z,8.40
2018-07-17T06:06:28.448Z,9.00
2018-07-17T06:07:28.691Z,8.50
2018-07-17T06:08:28.934Z,8.70
2018-07-17T06:09:29.180Z,9.40
2018-07-17T06:10:29.425Z,8.80
2018-07-17T06:11:29.674Z,8.20
2018-07-17T06:12:29.916Z,8.20
2018-07-17T06:13:30.161Z,9.20
2018-07-17T06:14:30.403Z,8.40
2018-07-17T06:15:30.649Z,8.80
2018-07-17T06:16:30.895Z,7.90
2018-07-17T06:17:31.139Z,9.00
2018-07-17T06:18:31.383Z,10.20
2018-07-17T06:19:31.627Z,7.30
2018-07-17T06:20:31.873Z,7.10
2018-07-17T06:21:32.116Z,7.60
2018-07-17T06:22:32.359Z,7.50
2018-07-17T06:23:32.606Z,8.80
2018-07-17T06:24:32.848Z,7.20
2018-07-17T06:25:33.092Z,10.60
2018-07-17T06:26:33.338Z,7.90
2018-07-17T06:27:33.583Z,7.30
2018-07-17T06:28:33.829Z,7.70
2018-07-17T06:29:34.070Z,8.90
2018-07-17T06:30:34.316Z,8.70
2018-07-17T06:31:34.563Z,8.00
2018-07-17T06:32:34.810Z,7.20
2018-07-17T06:33:35.053Z,10.80
2018-07-17T06:34:35.296Z,7.00
2018-07-17T06:35:35.541Z,7.20
2018-07-17T06:36:35.786Z,9.00
2018-07-17T06:37:36.031Z,6.80
2018-07-17T06:38:36.276Z,7.10
2018-07-17T06:39:36.526Z,6.50
2018-07-17T06:40:36.769Z,7.00
2018-07-17T06:41:37.013Z,11.40
2018-07-17T06:42:37.258Z,5.90
2018-07-17T06:43:37.508Z,6.80
2018-07-17T06:44:37.752Z,6.50
2018-07-17T06:45:37.993Z,6.70
2018-07-17T06:46:38.239Z,9.20
2018-07-17T06:47:38.485Z,7.30
2018-07-17T06:48:38.731Z,6.00
2018-07-17T06:49:38.978Z,6.90
2018-07-17T06:50:39.309Z,5.90
2018-07-17T06:51:39.469Z,5.40
2018-07-17T06:52:39.714Z,6.00
2018-07-17T06:53:39.965Z,7.00
2018-07-17T06:54:40.209Z,6.50
2018-07-17T06:55:40.452Z,6.00
2018-07-17T06:56:40.700Z,7.40
2018-07-17T06:57:40.944Z,6.30
2018-07-17T06:58:41.192Z,7.90
2018-07-17T06:59:41.438Z,6.20
2018-07-17T07:00:41.685Z,6.20
2018-07-17T07:01:41.933Z,7.90
2018-07-17T07:02:42.178Z,5.60
2018-07-17T07:03:42.425Z,6.40
2018-07-17T07:04:42.672Z,13.00
2018-07-17T07:05:42.919Z,5.00
2018-07-17T07:06:43.167Z,5.60
2018-07-17T07:07:43.412Z,10.10
2018-07-17T07:08:43.658Z,5.20
2018-07-17T07:09:43.904Z,5.60
2018-07-17T07:10:44.151Z,3.90
2018-07-17T07:11:44.397Z,3.90
2018-07-17T07:12:44.643Z,3.70
2018-07-17T07:13:44.889Z,3.90
2018-07-17T07:14:45.135Z,4.10
2018-07-17T07:15:45.383Z,4.20
2018-07-17T07:16:45.630Z,4.40
2018-07-17T07:17:45.875Z,5.30
2018-07-17T07:18:46.124Z,4.40
2018-07-17T07:19:46.369Z,5.60
2018-07-17T07:20:46.615Z,7.10
2018-07-17T07:21:46.864Z,5.00
2018-07-17T07:22:47.110Z,4.40
2018-07-17T07:23:47.359Z,4.80
2018-07-17T07:24:47.607Z,3.80
2018-07-17T07:25:47.856Z,4.00
2018-07-17T07:26:48.104Z,6.80
2018-07-17T07:27:48.354Z,4.40
2018-07-17T07:28:48.600Z,5.20
2018-07-17T07:29:48.848Z,4.60
2018-07-17T07:30:49.153Z,3.60
2018-07-17T07:31:49.345Z,4.20
2018-07-17T07:32:49.593Z,3.40
2018-07-17T07:33:49.843Z,3.40
2018-07-17T07:34:50.090Z,2.90
2018-07-17T07:35:50.338Z,6.40
2018-07-17T07:36:50.589Z,3.30
2018-07-17T07:37:50.836Z,4.20
2018-07-17T07:38:51.086Z,5.00
2018-07-17T07:39:51.336Z,4.50
2018-07-17T07:40:51.588Z,2.80
2018-07-17T07:41:51.834Z,2.60
2018-07-17T07:42:52.166Z,2.70
2018-07-17T07:43:52.333Z,2.70
2018-07-17T07:44:52.585Z,3.40
2018-07-17T07:45:52.834Z,2.70
2018-07-17T07:46:53.084Z,2.60
2018-07-17T07:47:53.335Z,2.30
2018-07-17T07:48:53.589Z,4.10
2018-07-17T07:49:53.836Z,4.30
2018-07-17T07:50:54.087Z,4.60
2018-07-17T07:51:54.339Z,2.70
2018-07-17T07:52:54.589Z,2.70
2018-07-17T07:53:54.842Z,2.60
2018-07-17T07:54:55.102Z,2.60
2018-07-17T07:55:55.345Z,3.30
2018-07-17T07:56:55.597Z,3.40
2018-07-17T07:57:55.851Z,2.80
2018-07-17T07:58:56.100Z,2.60
2018-07-17T07:59:56.352Z,3.70
2018-07-17T08:00:56.604Z,2.70
2018-07-17T08:01:56.853Z,4.50
2018-07-17T08:02:57.105Z,4.30
2018-07-17T08:03:57.399Z,3.00
2018-07-17T08:04:57.611Z,2.50
2018-07-17T08:05:57.864Z,2.20
2018-07-17T08:06:58.119Z,5.50
2018-07-17T08:07:58.369Z,2.80
2018-07-17T08:08:58.623Z,2.80
2018-07-17T08:09:58.873Z,2.60
2018-07-17T08:10:59.126Z,2.20
2018-07-17T08:11:59.390Z,4.10
2018-07-17T08:12:59.633Z,4.30
2018-07-17T08:13:59.887Z,2.70
2018-07-17T08:15:00.142Z,5.00
2018-07-17T08:16:00.396Z,2.90
2018-07-17T08:17:00.650Z,2.40
2018-07-17T08:18:00.904Z,2.60
2018-07-17T08:19:01.159Z,3.00
2018-07-17T08:20:01.412Z,3.20
2018-07-17T08:21:01.666Z,2.70
2018-07-17T08:22:01.921Z,3.40
2018-07-17T08:23:02.175Z,5.70
2018-07-17T08:24:02.429Z,5.30
2018-07-17T08:25:02.684Z,2.80
2018-07-17T08:26:02.938Z,4.80
2018-07-17T08:27:03.194Z,2.60
2018-07-17T08:28:03.450Z,2.30
2018-07-17T08:29:03.701Z,3.20
2018-07-17T08:30:03.958Z,3.00
2018-07-17T08:31:04.211Z,5.00
2018-07-17T08:32:04.468Z,3.00
2018-07-17T08:33:04.723Z,2.50
2018-07-17T08:34:04.976Z,3.20
2018-07-17T08:35:05.233Z,3.70
2018-07-17T08:36:05.488Z,3.40
2018-07-17T08:37:05.742Z,2.80
2018-07-17T08:38:05.998Z,4.00
2018-07-17T08:39:06.254Z,4.00
2018-07-17T08:40:06.509Z,2.90
2018-07-17T08:41:06.764Z,3.10
2018-07-17T08:42:07.019Z,2.50
2018-07-17T08:43:07.356Z,3.60
2018-07-17T08:44:07.531Z,3.00
2018-07-17T08:45:07.787Z,3.00
2018-07-17T08:46:08.104Z,8.40
2018-07-17T08:47:08.299Z,2.70
2018-07-17T08:48:08.555Z,2.90
2018-07-17T08:49:08.825Z,4.20
2018-07-17T08:50:09.067Z,4.80
2018-07-17T08:51:09.324Z,4.50
2018-07-17T08:52:09.580Z,2.90
2018-07-17T08:53:09.836Z,2.90
2018-07-17T08:54:10.093Z,2.50
2018-07-17T08:55:10.349Z,2.80
2018-07-17T08:56:10.607Z,3.00
2018-07-17T08:57:10.859Z,3.00
2018-07-17T08:58:11.117Z,6.50
2018-07-17T08:59:11.374Z,3.30
2018-07-17T09:00:11.634Z,2.60
2018-07-17T09:01:11.886Z,2.70
2018-07-17T09:02:12.141Z,3.90
2018-07-17T09:03:12.398Z,4.40
2018-07-17T09:04:12.656Z,3.10
2018-07-17T09:05:12.912Z,3.30
2018-07-17T09:06:13.171Z,2.80
2018-07-17T09:07:13.430Z,3.50
2018-07-17T09:08:13.684Z,3.10
2018-07-17T09:09:13.940Z,4.00
2018-07-17T09:10:14.197Z,2.80
2018-07-17T09:11:14.454Z,5.10
2018-07-17T09:12:14.711Z,3.40
2018-07-17T09:13:14.981Z,2.40
2018-07-17T09:14:15.223Z,2.60
2018-07-17T09:15:15.481Z,2.70
2018-07-17T09:16:15.737Z,3.30
2018-07-17T09:17:15.994Z,2.10
2018-07-17T09:18:16.253Z,3.40
2018-07-17T09:19:16.509Z,2.70
2018-07-17T09:20:16.766Z,2.00
2018-07-17T09:21:17.070Z,2.60
2018-07-17T09:22:17.281Z,2.70
2018-07-17T09:23:17.538Z,2.60
2018-07-17T09:24:17.799Z,3.00
2018-07-17T09:25:18.054Z,3.10
2018-07-17T09:26:18.318Z,2.40
2018-07-17T09:27:18.571Z,2.30
2018-07-17T09:28:18.900Z,2.70
2018-07-17T09:29:19.083Z,4.40
2018-07-17T09:30:19.341Z,2.50
2018-07-17T09:31:19.598Z,2.30
2018-07-17T09:32:19.857Z,4.10
2018-07-17T09:33:20.117Z,2.60
2018-07-17T09:34:20.373Z,4.20
2018-07-17T09:35:20.632Z,2.40
2018-07-17T09:36:20.889Z,3.90
2018-07-17T09:37:21.147Z,4.60
2018-07-17T09:38:21.407Z,1.90
2018-07-17T09:39:21.664Z,4.10
2018-07-17T09:40:21.923Z,3.20
2018-07-17T09:41:22.180Z,1.90
2018-07-17T09:42:22.440Z,2.30
2018-07-17T09:43:22.698Z,2.30
2018-07-17T09:44:23.022Z,3.30
2018-07-17T09:45:23.215Z,2.70
2018-07-17T09:46:23.478Z,2.00
2018-07-17T09:47:23.732Z,2.80
2018-07-17T09:48:23.989Z,2.50
2018-07-17T09:49:24.247Z,1.80
2018-07-17T09:50:24.507Z,6.40
2018-07-17T09:51:24.763Z,4.60
2018-07-17T09:52:25.021Z,6.70
2018-07-17T09:53:25.278Z,4.30
2018-07-17T09:54:25.580Z,2.10
2018-07-17T09:55:25.796Z,2.10
2018-07-17T09:56:26.055Z,3.00
2018-07-17T09:57:26.316Z,2.20
2018-07-17T09:58:26.571Z,2.90
2018-07-17T09:59:26.828Z,2.00
2018-07-17T10:00:27.087Z,1.80
2018-07-17T10:01:27.345Z,3.00
2018-07-17T10:02:27.604Z,2.10
2018-07-17T10:03:27.863Z,3.80
2018-07-17T10:04:28.122Z,2.30
2018-07-17T10:05:28.379Z,2.60
2018-07-17T10:06:28.687Z,1.80
2018-07-17T10:07:28.897Z,1.70
2018-07-17T10:08:29.156Z,2.20
2018-07-17T10:09:29.475Z,2.10
2018-07-17T10:10:29.674Z,1.50
2018-07-17T10:11:29.932Z,1.80
2018-07-17T10:12:30.192Z,3.60
2018-07-17T10:13:30.451Z,1.70
2018-07-17T10:14:30.763Z,1.50
2018-07-17T10:15:30.968Z,3.90
2018-07-17T10:16:31.227Z,1.60
2018-07-17T10:17:31.486Z,2.20
2018-07-17T10:18:31.744Z,4.20
2018-07-17T10:19:32.004Z,2.90
2018-07-17T10:20:32.264Z,1.80
2018-07-17T10:21:32.523Z,2.40
2018-07-17T10:22:32.782Z,5.00
2018-07-17T10:23:33.038Z,2.10
2018-07-17T10:24:33.299Z,1.80
2018-07-17T10:25:33.559Z,1.20
2018-07-17T10:26:33.838Z,1.90
2018-07-17T10:27:34.075Z,1.00
2018-07-17T10:28:34.332Z,1.80
2018-07-17T10:29:34.594Z,1.90
2018-07-17T10:30:34.854Z,2.00
2018-07-17T10:31:35.112Z,1.80
2018-07-17T10:32:35.370Z,1.70
2018-07-17T10:33:35.629Z,1.20
2018-07-17T10:34:35.891Z,2.40
2018-07-17T10:35:36.147Z,1.10
2018-07-17T10:36:36.406Z,4.30
2018-07-17T10:37:36.665Z,3.00
2018-07-17T10:38:36.950Z,2.60
2018-07-17T10:39:37.182Z,2.10
2018-07-17T10:40:37.442Z,4.30
2018-07-17T10:41:37.701Z,2.60
2018-07-17T10:42:37.959Z,3.30
2018-07-17T10:43:38.216Z,1.50
2018-07-17T10:44:38.474Z,1.30
2018-07-17T10:45:38.733Z,2.00
2018-07-17T10:46:38.991Z,1.40
2018-07-17T10:47:39.294Z,2.40
2018-07-17T10:48:39.508Z,1.40
2018-07-17T10:49:39.766Z,1.00
2018-07-17T10:50:40.026Z,1.10
2018-07-17T10:51:40.283Z,2.10
2018-07-17T10:52:40.542Z,1.50
2018-07-17T10:53:40.803Z,1.10
2018-07-17T10:54:41.060Z,1.40
2018-07-17T10:55:41.320Z,1.00
2018-07-17T10:56:41.576Z,3.00
2018-07-17T10:57:41.836Z,1.20
2018-07-17T10:58:42.095Z,0.80
2018-07-17T10:59:42.356Z,0.80
2018-07-17T11:00:42.613Z,2.00
2018-07-17T11:01:42.871Z,1.80
2018-07-17T11:02:43.130Z,0.70
2018-07-17T11:03:43.390Z,0.90
2018-07-17T11:04:43.649Z,0.80
2018-07-17T11:05:43.908Z,1.10
2018-07-17T11:06:44.167Z,1.90
2018-07-17T11:07:44.428Z,0.70
2018-07-17T11:08:44.686Z,2.70
2018-07-17T11:09:44.942Z,0.80
2018-07-17T11:10:45.200Z,0.70
2018-07-17T11:11:45.461Z,0.70
2018-07-17T11:12:45.718Z,1.70
2018-07-17T11:13:45.979Z,0.60
2018-07-17T11:14:46.236Z,1.50
2018-07-17T11:15:46.495Z,1.70
2018-07-17T11:16:46.754Z,1.50
2018-07-17T11:17:47.013Z,2.60
2018-07-17T11:18:47.272Z,0.90
2018-07-17T11:19:47.528Z,1.70
2018-07-17T11:20:47.788Z,0.60
2018-07-17T11:21:48.051Z,2.00
2018-07-17T11:22:48.306Z,1.60
2018-07-17T11:23:48.565Z,0.90
2018-07-17T11:24:48.821Z,8.10
2018-07-17T11:25:49.082Z,1.00
2018-07-17T11:26:49.341Z,0.60
2018-07-17T11:27:49.599Z,0.60
2018-07-17T11:28:49.858Z,1.10
2018-07-17T11:29:50.131Z,0.70
2018-07-17T11:30:50.375Z,3.00
2018-07-17T11:31:50.639Z,0.60
2018-07-17T11:32:50.891Z,0.60
2018-07-17T11:33:51.150Z,0.80
2018-07-17T11:34:51.412Z,1.00
2018-07-17T11:35:51.670Z,0.70
2018-07-17T11:36:51.926Z,1.60
2018-07-17T11:37:52.184Z,0.90
2018-07-17T11:38:52.442Z,1.70
2018-07-17T11:39:52.700Z,2.30
2018-07-17T11:40:52.961Z,1.50
2018-07-17T11:41:53.220Z,1.30
2018-07-17T11:42:53.478Z,1.80
2018-07-17T11:43:53.738Z,1.80
2018-07-17T11:44:53.996Z,2.30
2018-07-17T11:45:54.255Z,0.70
2018-07-17T11:46:54.515Z,0.60
2018-07-17T11:47:54.871Z,0.90
2018-07-17T11:48:55.033Z,1.00
2018-07-17T11:49:55.291Z,1.30
2018-07-17T11:50:55.549Z,0.70
2018-07-17T11:51:55.808Z,0.90
2018-07-17T11:52:56.067Z,1.90
2018-07-17T11:53:56.324Z,0.80
2018-07-17T11:54:56.584Z,1.60
2018-07-17T11:55:56.843Z,1.40
2018-07-17T11:56:57.102Z,1.40
2018-07-17T11:57:57.360Z,1.50
2018-07-17T11:58:57.710Z,2.30
2018-07-17T11:59:57.879Z,2.50
2018-07-17T12:00:58.139Z,6.90
2018-07-17T12:01:58.400Z,0.90
2018-07-17T12:02:58.655Z,3.20
2018-07-17T12:03:58.914Z,0.90
2018-07-17T12:04:59.172Z,1.60
2018-07-17T12:05:59.522Z,0.80
2018-07-17T12:06:59.689Z,2.70
2018-07-17T12:07:59.945Z,1.00
2018-07-17T12:09:00.200Z,2.80
2018-07-17T12:10:00.457Z,2.00
2018-07-17T12:11:00.713Z,1.50
2018-07-17T12:12:00.970Z,2.70
2018-07-17T12:13:01.240Z,2.20
2018-07-17T12:14:01.487Z,1.40
2018-07-17T12:15:01.745Z,1.00
2018-07-17T12:16:02.000Z,1.20
2018-07-17T12:17:02.257Z,0.80
2018-07-17T12:18:02.519Z,1.40
2018-07-17T12:19:02.773Z,2.80
2018-07-17T12:20:03.139Z,1.40
2018-07-17T12:21:03.287Z,1.70
2018-07-17T12:22:03.541Z,1.10
2018-07-17T12:23:03.797Z,1.40
2018-07-17T12:24:04.053Z,2.70
2018-07-17T12:25:04.311Z,0.70
2018-07-17T12:26:04.566Z,1.50
2018-07-17T12:27:04.823Z,2.20
2018-07-17T12:28:05.098Z,2.20
2018-07-17T12:29:05.335Z,1.10
2018-07-17T12:30:05.591Z,3.30
2018-07-17T12:31:05.849Z,2.40
2018-07-17T12:32:06.106Z,2.30
2018-07-17T12:33:06.363Z,1.00
2018-07-17T12:34:06.618Z,1.50
2018-07-17T12:35:06.875Z,0.80
2018-07-17T12:36:07.130Z,3.10
2018-07-17T12:37:07.386Z,1.00
2018-07-17T12:38:07.644Z,0.80
2018-07-17T12:39:07.900Z,2.30
2018-07-17T12:40:08.159Z,1.40
2018-07-17T12:41:08.937Z,1.00
2018-07-17T12:42:08.773Z,1.00
2018-07-17T12:43:09.029Z,1.00
2018-07-17T12:44:09.287Z,2.70
2018-07-17T12:45:09.540Z,1.40
2018-07-17T12:46:09.795Z,1.30
2018-07-17T12:47:10.052Z,2.50
2018-07-17T12:48:10.306Z,1.00
2018-07-17T12:49:10.563Z,1.10
2018-07-17T12:50:10.817Z,1.90
2018-07-17T12:51:11.074Z,2.20
2018-07-17T12:52:11.329Z,2.20
2018-07-17T12:53:11.583Z,1.30
2018-07-17T12:54:11.848Z,3.40
2018-07-17T12:55:12.094Z,2.40
2018-07-17T12:56:12.353Z,2.20
2018-07-17T12:57:12.605Z,1.90
2018-07-17T12:58:12.862Z,1.60
2018-07-17T12:59:13.114Z,3.80
2018-07-17T13:00:13.367Z,3.00
2018-07-17T13:01:13.623Z,1.00
2018-07-17T13:02:13.877Z,1.90
2018-07-17T13:03:14.132Z,1.90
2018-07-17T13:04:14.385Z,3.10
2018-07-17T13:05:14.639Z,1.30
2018-07-17T13:06:14.893Z,2.60
2018-07-17T13:07:15.147Z,1.10
2018-07-17T13:08:15.401Z,3.00
2018-07-17T13:09:15.674Z,1.80